createdAt,value
2018-05-07T00:00:13.263Z,14.91
2018-05-07T00:01:13.309Z,14.88
2018-05-07T00:02:13.277Z,14.94
2018-05-07T00:03:13.220Z,14.84
2018-05-07T00:04:13.199Z,14.86
2018-05-07T00:05:13.105Z,14.69
2018-05-07T00:06:13.221Z,14.72
2018-05-07T00:07:13.071Z,14.69
2018-05-07T00:08:13.113Z,14.69
2018-05-07T00:09:13.048Z,14.67
2018-05-07T00:10:13.126Z,14.65
2018-05-07T00:11:12.979Z,14.67
2018-05-07T00:12:13.038Z,14.61
2018-05-07T00:13:12.938Z,14.57
2018-05-07T00:14:12.950Z,14.56
2018-05-07T00:15:12.892Z,14.57
2018-05-07T00:16:12.965Z,14.64
2018-05-07T00:17:12.851Z,14.54
2018-05-07T00:18:12.877Z,14.53
2018-05-07T00:19:12.807Z,14.52
2018-05-07T00:20:12.895Z,14.49
2018-05-07T00:21:12.767Z,14.35
2018-05-07T00:22:12.804Z,14.52
2018-05-07T00:23:12.722Z,14.39
2018-05-07T00:24:12.816Z,14.31
2018-05-07T00:25:12.679Z,14.28
2018-05-07T00:26:12.730Z,14.35
2018-05-07T00:27:12.635Z,14.31
2018-05-07T00:28:12.767Z,14.31
2018-05-07T00:29:12.595Z,14.20
2018-05-07T00:30:12.655Z,14.19
2018-05-07T00:31:12.551Z,14.19
2018-05-07T00:32:12.668Z,14.16
2018-05-07T00:33:12.542Z,14.16
2018-05-07T00:34:12.578Z,14.16
2018-05-07T00:35:12.490Z,14.09
2018-05-07T00:36:12.601Z,14.12
2018-05-07T00:37:12.427Z,14.14
2018-05-07T00:38:12.508Z,14.13
2018-05-07T00:39:12.382Z,14.10
2018-05-07T00:40:12.525Z,14.19
2018-05-07T00:41:12.337Z,14.14
2018-05-07T00:42:12.436Z,14.19
2018-05-07T00:43:12.295Z,14.17
2018-05-07T00:44:12.345Z,14.09
2018-05-07T00:45:12.251Z,14.20
2018-05-07T00:46:12.356Z,14.16
2018-05-07T00:47:12.209Z,14.12
2018-05-07T00:48:12.270Z,14.06
2018-05-07T00:49:12.165Z,14.06
2018-05-07T00:50:12.282Z,13.98
2018-05-07T00:51:12.121Z,13.92
2018-05-07T00:52:12.198Z,13.94
2018-05-07T00:53:12.079Z,13.84
2018-05-07T00:54:12.212Z,13.80
2018-05-07T00:55:12.038Z,13.77
2018-05-07T00:56:12.120Z,13.74
2018-05-07T00:57:11.991Z,13.80
2018-05-07T00:58:12.136Z,13.80
2018-05-07T00:59:11.948Z,13.76
2018-05-07T01:00:12.048Z,13.81
2018-05-07T01:01:11.902Z,13.79
2018-05-07T01:02:11.960Z,13.77
2018-05-07T01:03:11.857Z,13.67
2018-05-07T01:04:11.970Z,13.67
2018-05-07T01:05:11.817Z,13.70
2018-05-07T01:06:11.885Z,13.65
2018-05-07T01:07:11.773Z,13.62
2018-05-07T01:08:11.898Z,13.63
2018-05-07T01:09:11.732Z,13.56
2018-05-07T01:10:11.815Z,13.63
2018-05-07T01:11:11.686Z,13.52
2018-05-07T01:12:11.820Z,13.61
2018-05-07T01:13:11.641Z,13.62
2018-05-07T01:14:11.734Z,13.51
2018-05-07T01:15:11.595Z,13.56
2018-05-07T01:16:11.754Z,13.49
2018-05-07T01:17:11.552Z,13.55
2018-05-07T01:18:11.663Z,13.51
2018-05-07T01:19:11.507Z,13.54
2018-05-07T01:20:11.767Z,13.49
2018-05-07T01:21:11.462Z,13.49
2018-05-07T01:22:11.587Z,13.41
2018-05-07T01:23:11.419Z,13.38
2018-05-07T01:24:11.498Z,13.44
2018-05-07T01:25:11.379Z,13.47
2018-05-07T01:26:11.513Z,13.43
2018-05-07T01:27:11.334Z,13.46
2018-05-07T01:28:11.425Z,13.46
2018-05-07T01:29:11.289Z,13.44
2018-05-07T01:30:11.439Z,13.37
2018-05-07T01:31:11.245Z,13.33
2018-05-07T01:32:11.347Z,13.27
2018-05-07T01:33:11.199Z,13.33
2018-05-07T01:34:11.369Z,13.29
2018-05-07T01:35:11.153Z,13.29
2018-05-07T01:36:11.276Z,13.22
2018-05-07T01:37:11.112Z,13.18
2018-05-07T01:38:11.200Z,13.20
2018-05-07T01:39:11.070Z,13.15
2018-05-07T01:40:11.205Z,13.09
2018-05-07T01:41:11.023Z,13.06
2018-05-07T01:42:11.116Z,13.12
2018-05-07T01:43:10.987Z,13.20
2018-05-07T01:44:11.131Z,13.12
2018-05-07T01:45:10.934Z,13.04
2018-05-07T01:46:11.036Z,13.06
2018-05-07T01:47:10.889Z,13.06
2018-05-07T01:48:11.054Z,13.03
2018-05-07T01:49:10.845Z,13.04
2018-05-07T01:50:10.965Z,12.93
2018-05-07T01:51:10.800Z,12.95
2018-05-07T01:52:10.980Z,13.03
2018-05-07T01:53:10.757Z,12.95
2018-05-07T01:54:10.893Z,12.97
2018-05-07T01:55:10.711Z,12.95
2018-05-07T01:56:10.904Z,12.88
2018-05-07T01:57:10.675Z,12.92
2018-05-07T01:58:10.819Z,12.92
2018-05-07T01:59:10.622Z,12.87
2018-05-07T02:00:10.626Z,12.93
2018-05-07T02:01:10.581Z,12.75
2018-05-07T02:02:10.640Z,12.84
2018-05-07T02:03:10.535Z,12.70
2018-05-07T02:04:10.551Z,12.79
2018-05-07T02:05:10.493Z,12.82
2018-05-07T02:06:10.567Z,12.77
2018-05-07T02:07:10.439Z,12.82
2018-05-07T02:08:10.478Z,12.78
2018-05-07T02:09:10.405Z,12.74
2018-05-07T02:10:10.487Z,12.78
2018-05-07T02:11:10.359Z,12.75
2018-05-07T02:12:10.404Z,12.74
2018-05-07T02:13:10.308Z,12.77
2018-05-07T02:14:10.319Z,12.70
2018-05-07T02:15:10.265Z,12.63
2018-05-07T02:16:10.329Z,12.63
2018-05-07T02:17:10.218Z,12.62
2018-05-07T02:18:10.243Z,12.74
2018-05-07T02:19:10.181Z,12.66
2018-05-07T02:20:10.255Z,12.60
2018-05-07T02:21:10.124Z,12.67
2018-05-07T02:22:10.166Z,12.64
2018-05-07T02:23:10.087Z,12.57
2018-05-07T02:24:10.180Z,12.60
2018-05-07T02:25:10.041Z,12.67
2018-05-07T02:26:10.093Z,12.60
2018-05-07T02:27:09.993Z,12.66
2018-05-07T02:28:10.108Z,12.57
2018-05-07T02:29:09.948Z,12.52
2018-05-07T02:30:10.016Z,12.52
2018-05-07T02:31:09.903Z,12.46
2018-05-07T02:32:09.929Z,12.48
2018-05-07T02:33:09.859Z,12.46
2018-05-07T02:34:09.952Z,12.46
2018-05-07T02:35:09.812Z,12.46
2018-05-07T02:36:09.854Z,12.39
2018-05-07T02:37:09.776Z,12.44
2018-05-07T02:38:09.873Z,12.41
2018-05-07T02:39:09.722Z,12.39
2018-05-07T02:40:09.784Z,12.42
2018-05-07T02:41:09.675Z,12.31
2018-05-07T02:42:09.799Z,12.34
2018-05-07T02:43:09.629Z,12.30
2018-05-07T02:44:09.710Z,12.33
2018-05-07T02:45:09.582Z,12.37
2018-05-07T02:46:09.623Z,12.27
2018-05-07T02:47:09.543Z,12.19
2018-05-07T02:48:09.636Z,12.19
2018-05-07T02:49:09.492Z,12.21
2018-05-07T02:50:09.549Z,12.23
2018-05-07T02:51:09.450Z,12.20
2018-05-07T02:52:09.566Z,12.23
2018-05-07T02:53:09.403Z,12.13
2018-05-07T02:54:09.471Z,12.16
2018-05-07T02:55:09.357Z,12.15
2018-05-07T02:56:09.485Z,12.15
2018-05-07T02:57:09.314Z,12.13
2018-05-07T02:58:09.396Z,12.12
2018-05-07T02:59:09.269Z,12.09
2018-05-07T03:00:09.408Z,12.04
2018-05-07T03:01:09.219Z,12.09
2018-05-07T03:02:09.324Z,12.02
2018-05-07T03:03:09.178Z,12.02
2018-05-07T03:04:09.236Z,12.04
2018-05-07T03:05:09.127Z,11.97
2018-05-07T03:06:09.248Z,11.97
2018-05-07T03:07:09.082Z,11.99
2018-05-07T03:08:09.164Z,12.05
2018-05-07T03:09:09.038Z,11.96
2018-05-07T03:10:09.183Z,11.87
2018-05-07T03:11:08.989Z,11.99
2018-05-07T03:12:09.198Z,11.99
2018-05-07T03:13:08.943Z,11.93
2018-05-07T03:14:09.109Z,11.96
2018-05-07T03:15:08.896Z,11.93
2018-05-07T03:16:09.023Z,11.94
2018-05-07T03:17:08.850Z,11.90
2018-05-07T03:18:08.931Z,11.94
2018-05-07T03:19:08.806Z,11.86
2018-05-07T03:20:08.946Z,11.94
2018-05-07T03:21:08.759Z,11.82
2018-05-07T03:22:08.860Z,11.80
2018-05-07T03:23:08.712Z,11.74
2018-05-07T03:24:08.885Z,11.70
2018-05-07T03:25:08.667Z,11.67
2018-05-07T03:26:08.786Z,11.65
2018-05-07T03:27:08.624Z,11.67
2018-05-07T03:28:08.798Z,11.74
2018-05-07T03:29:08.576Z,11.75
2018-05-07T03:30:08.714Z,11.74
2018-05-07T03:31:08.520Z,11.70
2018-05-07T03:32:08.620Z,11.74
2018-05-07T03:33:08.483Z,11.68
2018-05-07T03:34:08.637Z,11.65
2018-05-07T03:35:08.436Z,11.77
2018-05-07T03:36:08.547Z,11.68
2018-05-07T03:37:08.389Z,11.64
2018-05-07T03:38:08.602Z,11.65
2018-05-07T03:39:08.343Z,11.72
2018-05-07T03:40:08.477Z,11.71
2018-05-07T03:41:08.295Z,11.67
2018-05-07T03:42:08.384Z,11.71
2018-05-07T03:43:08.240Z,11.68
2018-05-07T03:44:08.401Z,11.70
2018-05-07T03:45:08.213Z,11.65
2018-05-07T03:46:09.336Z,11.70
2018-05-07T03:47:08.163Z,11.54
2018-05-07T03:48:08.327Z,11.61
2018-05-07T03:49:08.116Z,11.65
2018-05-07T03:50:08.236Z,11.68
2018-05-07T03:51:08.063Z,11.61
2018-05-07T03:52:08.251Z,11.62
2018-05-07T03:53:08.009Z,11.57
2018-05-07T03:54:08.163Z,11.59
2018-05-07T03:55:07.969Z,11.61
2018-05-07T03:56:08.076Z,11.59
2018-05-07T03:57:07.923Z,11.52
2018-05-07T03:58:08.091Z,11.57
2018-05-07T03:59:07.882Z,11.62
2018-05-07T04:00:07.998Z,11.62
2018-05-07T04:01:07.845Z,11.57
2018-05-07T04:02:08.014Z,11.59
2018-05-07T04:03:07.777Z,11.53
2018-05-07T04:04:07.823Z,11.53
2018-05-07T04:05:07.741Z,11.59
2018-05-07T04:06:07.839Z,11.59
2018-05-07T04:07:07.683Z,11.53
2018-05-07T04:08:07.754Z,11.52
2018-05-07T04:09:07.657Z,11.56
2018-05-07T04:10:07.664Z,11.62
2018-05-07T04:11:07.605Z,11.54
2018-05-07T04:12:07.678Z,11.47
2018-05-07T04:13:07.638Z,11.49
2018-05-07T04:14:07.588Z,11.49
2018-05-07T04:15:07.505Z,11.44
2018-05-07T04:16:07.600Z,11.50
2018-05-07T04:17:07.458Z,11.44
2018-05-07T04:18:07.513Z,11.52
2018-05-07T04:19:07.422Z,11.50
2018-05-07T04:20:07.525Z,11.43
2018-05-07T04:21:07.369Z,11.44
2018-05-07T04:22:07.437Z,11.47
2018-05-07T04:23:07.321Z,11.50
2018-05-07T04:24:07.350Z,11.43
2018-05-07T04:25:07.272Z,11.57
2018-05-07T04:26:07.363Z,11.50
2018-05-07T04:27:07.226Z,11.56
2018-05-07T04:28:07.279Z,11.61
2018-05-07T04:29:07.176Z,11.57
2018-05-07T04:30:07.288Z,11.59
2018-05-07T04:31:07.128Z,11.56
2018-05-07T04:32:07.201Z,11.54
2018-05-07T04:33:07.083Z,11.53
2018-05-07T04:34:07.120Z,11.52
2018-05-07T04:35:07.033Z,11.50
2018-05-07T04:36:07.126Z,11.54
2018-05-07T04:37:06.990Z,11.61
2018-05-07T04:38:07.038Z,11.61
2018-05-07T04:39:06.941Z,11.56
2018-05-07T04:40:07.053Z,11.57
2018-05-07T04:41:06.896Z,11.57
2018-05-07T04:42:06.965Z,11.64
2018-05-07T04:43:06.845Z,11.61
2018-05-07T04:44:06.977Z,11.70
2018-05-07T04:45:06.803Z,11.59
2018-05-07T04:46:06.890Z,11.62
2018-05-07T04:47:06.753Z,11.59
2018-05-07T04:48:06.802Z,11.65
2018-05-07T04:49:06.704Z,11.72
2018-05-07T04:50:06.814Z,11.70
2018-05-07T04:51:06.661Z,11.68
2018-05-07T04:52:06.734Z,11.65
2018-05-07T04:53:06.616Z,11.75
2018-05-07T04:54:06.743Z,11.67
2018-05-07T04:55:06.644Z,11.71
2018-05-07T04:56:06.725Z,11.72
2018-05-07T04:57:06.521Z,11.78
2018-05-07T04:58:06.565Z,11.78
2018-05-07T04:59:06.471Z,11.77
2018-05-07T05:00:06.649Z,11.71
2018-05-07T05:01:06.433Z,11.67
2018-05-07T05:02:06.491Z,11.77
2018-05-07T05:03:06.378Z,11.83
2018-05-07T05:04:06.504Z,11.87
2018-05-07T05:05:06.330Z,11.89
2018-05-07T05:06:06.416Z,11.90
2018-05-07T05:07:06.290Z,12.02
2018-05-07T05:08:06.430Z,12.02
2018-05-07T05:09:06.240Z,12.05
2018-05-07T05:10:06.341Z,12.05
2018-05-07T05:11:06.191Z,12.12
2018-05-07T05:12:06.292Z,12.19
2018-05-07T05:13:06.147Z,12.21
2018-05-07T05:14:06.269Z,12.16
2018-05-07T05:15:06.100Z,12.16
2018-05-07T05:16:06.184Z,12.15
2018-05-07T05:17:06.052Z,12.23
2018-05-07T05:18:06.197Z,12.41
2018-05-07T05:19:06.011Z,12.30
2018-05-07T05:20:06.109Z,12.30
2018-05-07T05:21:05.979Z,12.38
2018-05-07T05:22:06.118Z,12.39
2018-05-07T05:23:05.911Z,12.49
2018-05-07T05:24:06.033Z,12.49
2018-05-07T05:25:05.865Z,12.54
2018-05-07T05:26:05.943Z,12.67
2018-05-07T05:27:05.819Z,12.66
2018-05-07T05:28:05.958Z,12.74
2018-05-07T05:29:05.773Z,12.78
2018-05-07T05:30:05.874Z,12.69
2018-05-07T05:31:05.728Z,12.78
2018-05-07T05:32:05.884Z,12.78
2018-05-07T05:33:05.682Z,12.85
2018-05-07T05:34:05.795Z,12.87
2018-05-07T05:35:05.634Z,12.96
2018-05-07T05:36:05.809Z,12.92
2018-05-07T05:37:05.589Z,13.03
2018-05-07T05:38:05.720Z,13.12
2018-05-07T05:39:05.550Z,13.20
2018-05-07T05:40:05.634Z,13.24
2018-05-07T05:41:05.496Z,13.24
2018-05-07T05:42:05.647Z,13.30
2018-05-07T05:43:05.447Z,13.38
2018-05-07T05:44:05.597Z,13.44
2018-05-07T05:45:05.405Z,13.47
2018-05-07T05:46:05.566Z,13.41
2018-05-07T05:47:05.359Z,13.51
2018-05-07T05:48:05.489Z,13.49
2018-05-07T05:49:05.321Z,13.54
2018-05-07T05:50:05.574Z,13.69
2018-05-07T05:51:05.269Z,13.67
2018-05-07T05:52:05.416Z,13.74
2018-05-07T05:53:05.224Z,13.77
2018-05-07T05:54:05.330Z,13.73
2018-05-07T05:55:05.176Z,13.84
2018-05-07T05:56:05.345Z,13.92
2018-05-07T05:57:05.132Z,13.98
2018-05-07T05:58:05.153Z,14.04
2018-05-07T05:59:05.083Z,14.06
2018-05-07T06:00:05.173Z,14.12
2018-05-07T06:01:05.043Z,14.06
2018-05-07T06:02:05.086Z,14.12
2018-05-07T06:03:04.993Z,14.17
2018-05-07T06:04:05.190Z,14.20
2018-05-07T06:05:04.945Z,14.34
2018-05-07T06:06:05.010Z,14.34
2018-05-07T06:07:04.906Z,14.25
2018-05-07T06:08:04.915Z,14.42
2018-05-07T06:09:04.903Z,14.50
2018-05-07T06:10:04.930Z,14.44
2018-05-07T06:11:04.812Z,14.52
2018-05-07T06:12:04.842Z,14.60
2018-05-07T06:13:04.768Z,14.57
2018-05-07T06:14:04.748Z,14.61
2018-05-07T06:15:04.721Z,14.71
2018-05-07T06:16:04.762Z,14.78
2018-05-07T06:17:04.683Z,14.86
2018-05-07T06:18:04.780Z,14.83
2018-05-07T06:19:04.637Z,14.84
2018-05-07T06:20:04.691Z,14.81
2018-05-07T06:21:04.593Z,14.95
2018-05-07T06:22:04.603Z,15.06
2018-05-07T06:23:04.541Z,15.09
2018-05-07T06:24:04.615Z,15.19
2018-05-07T06:25:04.501Z,15.27
2018-05-07T06:26:04.526Z,15.35
2018-05-07T06:27:04.463Z,15.41
2018-05-07T06:28:04.540Z,15.46
2018-05-07T06:29:04.411Z,15.52
2018-05-07T06:30:04.451Z,15.48
2018-05-07T06:31:04.364Z,15.54
2018-05-07T06:32:04.363Z,15.57
2018-05-07T06:33:04.334Z,15.64
2018-05-07T06:34:04.379Z,15.67
2018-05-07T06:35:04.278Z,15.78
2018-05-07T06:36:04.290Z,15.84
2018-05-07T06:37:04.236Z,15.88
2018-05-07T06:38:04.302Z,15.92
2018-05-07T06:39:04.186Z,15.89
2018-05-07T06:40:04.220Z,15.94
2018-05-07T06:41:04.143Z,15.97
2018-05-07T06:42:04.233Z,15.96
2018-05-07T06:43:04.101Z,15.94
2018-05-07T06:44:04.148Z,16.06
2018-05-07T06:45:04.057Z,16.14
2018-05-07T06:46:04.061Z,16.22
2018-05-07T06:47:04.015Z,16.26
2018-05-07T06:48:04.071Z,16.26
2018-05-07T06:49:03.969Z,16.31
2018-05-07T06:50:03.982Z,16.37
2018-05-07T06:51:03.929Z,16.35
2018-05-07T06:52:04.044Z,16.34
2018-05-07T06:53:03.891Z,16.40
2018-05-07T06:54:03.911Z,16.38
2018-05-07T06:55:03.845Z,16.48
2018-05-07T06:56:03.928Z,16.49
2018-05-07T06:57:03.793Z,16.53
2018-05-07T06:58:03.838Z,16.58
2018-05-07T06:59:03.754Z,16.55
2018-05-07T07:00:03.749Z,16.62
2018-05-07T07:01:03.713Z,16.63
2018-05-07T07:02:03.760Z,16.75
2018-05-07T07:03:03.712Z,16.74
2018-05-07T07:04:03.671Z,16.88
2018-05-07T07:05:03.629Z,16.85
2018-05-07T07:06:03.682Z,16.86
2018-05-07T07:07:03.579Z,16.90
2018-05-07T07:08:03.619Z,16.95
2018-05-07T07:09:03.541Z,16.98
2018-05-07T07:10:03.609Z,17.04
2018-05-07T07:11:03.503Z,17.14
2018-05-07T07:12:03.520Z,17.06
2018-05-07T07:13:03.450Z,17.13
2018-05-07T07:14:03.554Z,17.10
2018-05-07T07:15:03.408Z,17.20
2018-05-07T07:16:03.440Z,17.26
2018-05-07T07:17:03.370Z,17.30
2018-05-07T07:18:03.349Z,17.28
2018-05-07T07:19:03.324Z,17.25
2018-05-07T07:20:03.375Z,17.25
2018-05-07T07:21:03.278Z,17.32
2018-05-07T07:22:04.306Z,17.46
2018-05-07T07:23:03.241Z,17.53
2018-05-07T07:24:03.297Z,17.54
2018-05-07T07:25:03.198Z,17.63
2018-05-07T07:26:03.209Z,17.59
2018-05-07T07:27:03.154Z,17.74
2018-05-07T07:28:03.295Z,17.78
2018-05-07T07:29:03.113Z,17.76
2018-05-07T07:30:03.179Z,17.79
2018-05-07T07:31:03.111Z,17.79
2018-05-07T07:32:03.202Z,17.81
2018-05-07T07:33:03.036Z,17.82
2018-05-07T07:34:03.155Z,17.82
2018-05-07T07:35:02.991Z,17.82
2018-05-07T07:36:03.076Z,17.87
2018-05-07T07:37:02.946Z,17.94
2018-05-07T07:38:02.985Z,17.95
2018-05-07T07:39:02.903Z,18.00
2018-05-07T07:40:02.897Z,18.09
2018-05-07T07:41:02.863Z,18.09
2018-05-07T07:42:02.912Z,18.15
2018-05-07T07:43:02.820Z,18.19
2018-05-07T07:44:02.823Z,18.18
2018-05-07T07:45:02.780Z,18.27
2018-05-07T07:46:02.838Z,18.31
2018-05-07T07:47:02.761Z,18.40
2018-05-07T07:48:02.752Z,18.47
2018-05-07T07:49:02.700Z,18.39
2018-05-07T07:50:02.766Z,18.43
2018-05-07T07:51:02.655Z,18.44
2018-05-07T07:52:02.685Z,18.59
2018-05-07T07:53:02.617Z,18.59
2018-05-07T07:54:02.692Z,18.62
2018-05-07T07:55:02.577Z,18.57
2018-05-07T07:56:02.598Z,18.65
2018-05-07T07:57:02.537Z,18.57
2018-05-07T07:58:02.622Z,18.70
2018-05-07T07:59:02.493Z,18.70
2018-05-07T08:00:02.527Z,18.72
2018-05-07T08:01:02.451Z,18.68
2018-05-07T08:02:02.542Z,18.74
2018-05-07T08:03:02.411Z,18.79
2018-05-07T08:04:02.453Z,18.80
2018-05-07T08:05:02.370Z,18.87
2018-05-07T08:06:02.367Z,18.92
2018-05-07T08:07:02.328Z,19.05
2018-05-07T08:08:02.379Z,19.02
2018-05-07T08:09:02.288Z,19.08
2018-05-07T08:10:02.292Z,19.13
2018-05-07T08:11:02.249Z,19.13
2018-05-07T08:12:02.334Z,19.28
2018-05-07T08:13:02.209Z,19.29
2018-05-07T08:14:02.216Z,19.36
2018-05-07T08:15:02.166Z,19.31
2018-05-07T08:16:02.240Z,19.38
2018-05-07T08:17:02.127Z,19.47
2018-05-07T08:18:02.142Z,19.47
2018-05-07T08:19:02.094Z,19.54
2018-05-07T08:20:02.156Z,19.54
2018-05-07T08:21:02.047Z,19.57
2018-05-07T08:22:02.067Z,19.58
2018-05-07T08:23:02.010Z,19.63
2018-05-07T08:24:02.081Z,19.60
2018-05-07T08:25:01.966Z,19.65
2018-05-07T08:26:01.995Z,19.68
2018-05-07T08:27:01.929Z,19.75
2018-05-07T08:28:02.011Z,19.75
2018-05-07T08:29:01.886Z,19.65
2018-05-07T08:30:01.921Z,19.78
2018-05-07T08:31:01.850Z,19.80
2018-05-07T08:32:01.935Z,19.79
2018-05-07T08:33:01.804Z,19.87
2018-05-07T08:34:01.844Z,19.95
2018-05-07T08:35:01.771Z,20.02
2018-05-07T08:36:01.859Z,20.05
2018-05-07T08:37:01.736Z,20.06
2018-05-07T08:38:01.769Z,20.08
2018-05-07T08:39:01.697Z,20.08
2018-05-07T08:40:01.785Z,20.16
2018-05-07T08:41:01.658Z,20.24
2018-05-07T08:42:01.695Z,20.34
2018-05-07T08:43:01.618Z,20.46
2018-05-07T08:44:01.608Z,20.58
2018-05-07T08:45:01.590Z,20.71
2018-05-07T08:46:01.620Z,20.81
2018-05-07T08:47:01.541Z,20.91
2018-05-07T08:48:01.534Z,21.04
2018-05-07T08:49:01.509Z,21.16
2018-05-07T08:50:01.550Z,21.30
2018-05-07T08:51:01.468Z,21.44
2018-05-07T08:52:01.460Z,21.57
2018-05-07T08:53:01.476Z,21.85
2018-05-07T08:54:01.474Z,21.99
2018-05-07T08:55:01.384Z,22.19
2018-05-07T08:56:01.385Z,22.25
2018-05-07T08:57:01.346Z,22.50
2018-05-07T08:58:01.399Z,22.49
2018-05-07T08:59:01.335Z,22.52
2018-05-07T09:00:01.311Z,22.64
2018-05-07T09:01:01.271Z,22.72
2018-05-07T09:02:01.326Z,22.75
2018-05-07T09:03:01.233Z,22.89
2018-05-07T09:04:01.237Z,23.05
2018-05-07T09:05:01.198Z,23.22
2018-05-07T09:06:01.254Z,23.40
2018-05-07T09:07:01.182Z,23.70
2018-05-07T09:08:01.196Z,23.87
2018-05-07T09:09:01.124Z,24.04
2018-05-07T09:10:01.106Z,24.08
2018-05-07T09:11:01.086Z,24.29
2018-05-07T09:12:01.190Z,24.38
2018-05-07T09:13:01.050Z,24.73
2018-05-07T09:14:01.207Z,24.76
2018-05-07T09:15:01.015Z,25.01
2018-05-07T09:16:01.119Z,25.12
2018-05-07T09:17:00.979Z,25.15
2018-05-07T09:18:01.131Z,25.00
2018-05-07T09:19:00.943Z,25.13
2018-05-07T09:20:01.044Z,25.31
2018-05-07T09:21:00.908Z,25.52
2018-05-07T09:22:01.056Z,25.80
2018-05-07T09:23:00.875Z,26.06
2018-05-07T09:24:00.972Z,26.11
2018-05-07T09:25:00.839Z,26.15
2018-05-07T09:26:00.983Z,25.86
2018-05-07T09:27:00.803Z,25.69
2018-05-07T09:28:00.940Z,25.74
2018-05-07T09:29:00.776Z,25.62
2018-05-07T09:30:00.912Z,25.59
2018-05-07T09:31:00.739Z,25.79
2018-05-07T09:32:00.820Z,25.74
2018-05-07T09:33:00.701Z,25.62
2018-05-07T09:34:00.833Z,25.75
2018-05-07T09:35:00.668Z,25.98
2018-05-07T09:36:00.745Z,26.02
2018-05-07T09:37:00.644Z,26.17
2018-05-07T09:38:00.759Z,26.35
2018-05-07T09:39:00.601Z,26.44
2018-05-07T09:40:00.773Z,26.31
2018-05-07T09:41:00.569Z,26.21
2018-05-07T09:42:00.684Z,26.22
2018-05-07T09:43:00.623Z,26.39
2018-05-07T09:44:00.703Z,26.57
2018-05-07T09:45:00.504Z,26.79
2018-05-07T09:46:00.611Z,26.76
2018-05-07T09:47:00.476Z,26.69
2018-05-07T09:48:00.625Z,26.68
2018-05-07T09:49:00.475Z,26.72
2018-05-07T09:50:00.537Z,26.84
2018-05-07T09:51:00.420Z,27.23
2018-05-07T09:52:00.551Z,27.29
2018-05-07T09:53:00.376Z,27.17
2018-05-07T09:54:00.565Z,27.09
2018-05-07T09:55:00.344Z,27.01
2018-05-07T09:56:00.476Z,27.14
2018-05-07T09:57:00.397Z,27.31
2018-05-07T09:58:00.490Z,27.59
2018-05-07T09:59:00.287Z,27.76
2018-05-07T10:00:00.400Z,27.71
2018-05-07T10:01:00.263Z,27.77
2018-05-07T10:02:00.423Z,27.92
2018-05-07T10:03:00.225Z,27.99
2018-05-07T10:04:00.356Z,27.85
2018-05-07T10:05:00.188Z,28.77
2018-05-07T10:06:00.360Z,29.20
2018-05-07T10:07:00.165Z,29.18
2018-05-07T10:08:00.371Z,29.71
2018-05-07T10:09:00.132Z,29.52
2018-05-07T10:10:00.270Z,29.28
2018-05-07T10:11:00.101Z,29.10
2018-05-07T10:12:00.290Z,28.95
2018-05-07T10:13:00.073Z,28.96
2018-05-07T10:14:00.201Z,29.10
2018-05-07T10:15:00.048Z,29.08
2018-05-07T10:16:00.112Z,29.18
2018-05-07T10:17:00.034Z,29.29
2018-05-07T10:18:00.125Z,29.33
2018-05-07T10:18:59.988Z,29.35
2018-05-07T10:20:00.035Z,29.34
2018-05-07T10:20:59.960Z,29.57
2018-05-07T10:22:00.049Z,29.87
2018-05-07T10:22:59.933Z,29.52
2018-05-07T10:23:59.959Z,29.22
2018-05-07T10:24:59.907Z,29.13
2018-05-07T10:25:59.975Z,29.31
2018-05-07T10:26:59.880Z,29.52
2018-05-07T10:27:59.983Z,29.37
2018-05-07T10:28:59.849Z,29.06
2018-05-07T10:29:59.899Z,28.82
2018-05-07T10:30:59.823Z,29.13
2018-05-07T10:31:59.918Z,28.87
2018-05-07T10:32:59.798Z,29.08
2018-05-07T10:33:59.826Z,29.10
2018-05-07T10:34:59.775Z,29.13
2018-05-07T10:35:59.840Z,29.15
2018-05-07T10:36:59.748Z,29.18
2018-05-07T10:37:59.853Z,29.15
2018-05-07T10:38:59.721Z,29.19
2018-05-07T10:39:59.766Z,29.18
2018-05-07T10:40:59.693Z,28.87
2018-05-07T10:41:59.777Z,29.20
2018-05-07T10:42:59.668Z,29.08
2018-05-07T10:43:59.796Z,29.11
2018-05-07T10:44:59.653Z,29.22
2018-05-07T10:45:59.705Z,29.33
2018-05-07T10:46:59.616Z,29.11
2018-05-07T10:47:59.717Z,29.11
2018-05-07T10:48:59.591Z,29.28
2018-05-07T10:49:59.634Z,29.41
2018-05-07T10:50:59.560Z,29.53
2018-05-07T10:51:59.643Z,29.44
2018-05-07T10:52:59.543Z,29.56
2018-05-07T10:53:59.658Z,29.65
2018-05-07T10:54:59.513Z,29.63
2018-05-07T10:55:59.569Z,29.41
2018-05-07T10:56:59.488Z,29.38
2018-05-07T10:57:59.582Z,29.41
2018-05-07T10:58:59.463Z,29.47
2018-05-07T10:59:59.596Z,29.78
2018-05-07T11:00:59.441Z,29.56
2018-05-07T11:01:59.508Z,29.34
2018-05-07T11:02:59.419Z,29.35
2018-05-07T11:03:59.524Z,29.20
2018-05-07T11:04:59.392Z,29.26
2018-05-07T11:05:59.543Z,29.37
2018-05-07T11:06:59.367Z,29.38
2018-05-07T11:07:59.446Z,29.59
2018-05-07T11:08:59.343Z,29.81
2018-05-07T11:09:59.462Z,29.92
2018-05-07T11:10:59.315Z,30.26
2018-05-07T11:11:59.371Z,30.49
2018-05-07T11:12:59.303Z,30.33
2018-05-07T11:13:59.386Z,30.14
2018-05-07T11:14:59.269Z,30.11
2018-05-07T11:15:59.400Z,29.78
2018-05-07T11:16:59.246Z,29.72
2018-05-07T11:17:59.254Z,29.87
2018-05-07T11:18:59.224Z,30.08
2018-05-07T11:19:59.327Z,30.29
2018-05-07T11:20:59.203Z,30.43
2018-05-07T11:21:59.341Z,30.54
2018-05-07T11:22:59.173Z,30.69
2018-05-07T11:23:59.251Z,30.65
2018-05-07T11:24:59.153Z,30.93
2018-05-07T11:25:59.268Z,31.05
2018-05-07T11:26:59.130Z,31.18
2018-05-07T11:27:59.293Z,31.11
2018-05-07T11:28:59.104Z,31.26
2018-05-07T11:29:59.186Z,31.12
2018-05-07T11:30:59.084Z,31.06
2018-05-07T11:31:59.211Z,30.86
2018-05-07T11:32:59.066Z,30.83
2018-05-07T11:33:59.222Z,30.83
2018-05-07T11:34:59.048Z,30.78
2018-05-07T11:35:59.133Z,30.91
2018-05-07T11:36:59.021Z,31.02
2018-05-07T11:37:59.152Z,31.12
2018-05-07T11:38:59.073Z,31.13
2018-05-07T11:39:59.161Z,30.91
2018-05-07T11:40:58.974Z,30.90
2018-05-07T11:41:58.995Z,30.99
2018-05-07T11:42:58.952Z,30.91
2018-05-07T11:43:58.949Z,31.05
2018-05-07T11:44:58.932Z,31.15
2018-05-07T11:45:59.022Z,31.21
2018-05-07T11:46:58.910Z,31.20
2018-05-07T11:47:58.929Z,31.27
2018-05-07T11:48:58.890Z,31.40
2018-05-07T11:49:58.886Z,31.38
2018-05-07T11:50:59.032Z,31.28
2018-05-07T11:51:58.858Z,31.26
2018-05-07T11:52:58.946Z,31.26
2018-05-07T11:53:58.836Z,31.39
2018-05-07T11:54:58.871Z,31.60
2018-05-07T11:55:58.852Z,31.62
2018-05-07T11:56:58.883Z,31.60
2018-05-07T11:57:58.794Z,31.53
2018-05-07T11:58:58.973Z,31.53
2018-05-07T11:59:58.851Z,31.38
2018-05-07T12:00:58.904Z,31.38
2018-05-07T12:01:58.755Z,31.46
2018-05-07T12:02:58.912Z,31.67
2018-05-07T12:03:58.732Z,31.80
2018-05-07T12:04:58.926Z,31.98
2018-05-07T12:05:58.713Z,32.05
2018-05-07T12:06:58.741Z,31.96
2018-05-07T12:07:58.696Z,31.99
2018-05-07T12:08:58.861Z,31.99
2018-05-07T12:09:58.673Z,31.91
2018-05-07T12:10:58.765Z,31.82
2018-05-07T12:11:58.654Z,31.72
2018-05-07T12:12:58.779Z,31.65
2018-05-07T12:13:58.634Z,31.40
2018-05-07T12:14:58.793Z,30.83
2018-05-07T12:15:58.647Z,30.69
2018-05-07T12:16:58.805Z,30.71
2018-05-07T12:17:58.600Z,30.78
2018-05-07T12:18:58.719Z,30.81
2018-05-07T12:19:58.576Z,30.96
2018-05-07T12:20:58.734Z,31.01
2018-05-07T12:21:58.559Z,30.72
2018-05-07T12:22:58.644Z,30.84
2018-05-07T12:23:58.543Z,30.98
2018-05-07T12:24:58.556Z,31.13
2018-05-07T12:25:58.519Z,31.26
2018-05-07T12:26:58.570Z,31.43
2018-05-07T12:27:58.501Z,31.60
2018-05-07T12:28:58.583Z,31.70
2018-05-07T12:29:58.481Z,31.87
2018-05-07T12:30:58.497Z,32.03
2018-05-07T12:31:58.484Z,32.05
2018-05-07T12:32:58.512Z,32.21
2018-05-07T12:33:58.441Z,32.15
2018-05-07T12:34:58.526Z,32.32
2018-05-07T12:35:58.426Z,32.27
2018-05-07T12:36:58.538Z,32.30
2018-05-07T12:37:58.405Z,32.22
2018-05-07T12:38:58.455Z,32.25
2018-05-07T12:39:58.388Z,32.20
2018-05-07T12:40:58.467Z,32.17
2018-05-07T12:41:58.367Z,32.11
2018-05-07T12:42:58.482Z,32.18
2018-05-07T12:43:58.347Z,32.13
2018-05-07T12:44:58.390Z,32.14
2018-05-07T12:45:58.327Z,32.30
2018-05-07T12:46:58.406Z,32.39
2018-05-07T12:47:58.312Z,32.14
2018-05-07T12:48:58.426Z,32.15
2018-05-07T12:49:58.295Z,32.15
2018-05-07T12:50:58.330Z,32.07
2018-05-07T12:51:58.279Z,32.15